Time;durP1;ratioP1;P1;durP2;ratioP2;P2;SDS_P1;SDS_P2;PMS_P1;PMS_P2;Temp;Humidity;BMP_temperature;BMP_pressure;BME280_temperature;BME280_humidity;BME280_pressure;Samples;Min_cycle;Max_cycle;Signal;HPM_P1;HPM_P2
2022/01/02 00:01:01;;;;;;;7.90;6.83;;;;;;;12.69;70.34;100146.19;5091514;28;20202;-57
2022/01/02 00:03:34;;;;;;;8.30;7.40;;;;;;;12.65;70.39;100147.81;5089265;28;20206;-57
2022/01/02 00:06:03;;;;;;;7.67;6.87;;;;;;;12.65;70.35;100142.66;5091413;28;20199;-57
2022/01/02 00:08:32;;;;;;;7.70;6.90;;;;;;;12.72;69.71;100149.66;5091682;28;20232;-57
2022/01/02 00:11:01;;;;;;;8.47;7.37;;;;;;;12.68;69.74;100147.00;5092182;28;20198;-57
2022/01/02 00:13:33;;;;;;;7.77;7.00;;;;;;;12.71;69.79;100155.69;5092972;28;20913;-57
2022/01/02 00:16:05;;;;;;;8.03;7.23;;;;;;;12.71;70.03;100150.50;5092659;28;20688;-57
2022/01/02 00:18:35;;;;;;;8.93;8.02;;;;;;;12.63;70.13;100166.69;5091776;28;20436;-57
2022/01/02 00:21:06;;;;;;;8.23;7.40;;;;;;;12.64;70.08;100160.66;5092412;28;20215;-57
2022/01/02 00:23:44;;;;;;;7.87;7.07;;;;;;;12.66;69.94;100169.31;5092732;28;20191;-56
2022/01/02 00:26:16;;;;;;;8.07;6.67;;;;;;;12.64;70.00;100171.84;5092484;28;20202;-57
2022/01/02 00:28:46;;;;;;;8.23;7.30;;;;;;;12.55;70.16;100147.63;5092275;28;20248;-57
2022/01/02 00:31:14;;;;;;;7.70;6.60;;;;;;;12.64;70.17;100176.13;5092271;28;20197;-56
2022/01/02 00:33:42;;;;;;;6.63;5.83;;;;;;;12.73;69.41;100173.75;5092551;28;20245;-57
2022/01/02 00:36:10;;;;;;;6.80;6.07;;;;;;;12.75;69.20;100178.06;5092015;28;20230;-56
2022/01/02 00:38:39;;;;;;;7.17;6.47;;;;;;;12.74;69.22;100178.94;5092067;28;20194;-57
2022/01/02 00:41:07;;;;;;;6.97;6.27;;;;;;;12.81;69.15;100179.91;5092111;28;20276;-57
2022/01/02 00:43:44;;;;;;;7.50;6.47;;;;;;;12.67;69.24;100168.47;5092437;28;20864;-57
2022/01/02 00:46:15;;;;;;;7.23;6.53;;;;;;;12.78;69.01;100178.13;5091912;28;20201;-57
2022/01/02 00:48:46;;;;;;;8.10;6.77;;;;;;;12.75;69.28;100178.06;5090933;28;20281;-57
2022/01/02 00:51:18;;;;;;;7.77;6.97;;;;;;;12.76;68.80;100174.66;5091956;28;20187;-57
2022/01/02 00:53:48;;;;;;;8.50;6.40;;;;;;;12.70;68.75;100177.13;5091559;28;20191;-58
2022/01/02 00:56:19;;;;;;;7.60;6.60;;;;;;;12.68;69.15;100175.38;5092035;28;20191;-57
2022/01/02 00:58:52;;;;;;;6.90;6.20;;;;;;;12.70;69.00;100174.56;5091848;28;20604;-57
2022/01/02 01:01:24;;;;;;;7.50;6.37;;;;;;;12.65;69.45;100185.63;5091478;28;20716;-57
2022/01/02 01:03:54;;;;;;;7.70;7.00;;;;;;;12.64;69.34;100186.44;5091759;28;20195;-57
2022/01/02 01:06:24;;;;;;;6.93;6.33;;;;;;;12.66;69.15;100189.94;5091633;28;20199;-56
2022/01/02 01:08:55;;;;;;;7.20;6.50;;;;;;;12.65;69.23;100194.22;5092046;28;20191;-57
2022/01/02 01:11:26;;;;;;;6.33;5.73;;;;;;;12.75;68.36;100190.97;5091379;28;20186;-57
2022/01/02 01:13:55;;;;;;;7.27;6.37;;;;;;;12.77;68.34;100180.69;5091397;28;20245;-57
2022/01/02 01:16:22;;;;;;;6.63;6.03;;;;;;;12.77;68.43;100184.13;5091554;28;20205;-57
2022/01/02 01:18:50;;;;;;;6.53;5.83;;;;;;;12.74;68.42;100188.38;5091264;28;20234;-57
2022/01/02 01:21:17;;;;;;;6.73;6.00;;;;;;;12.77;68.18;100188.44;5090604;28;20570;-57
2022/01/02 01:23:44;;;;;;;7.43;6.50;;;;;;;12.78;68.02;100187.56;5093231;28;20293;-57
2022/01/02 01:26:15;;;;;;;6.93;5.77;;;;;;;12.74;68.38;100190.97;5089804;28;20187;-57
2022/01/02 01:28:42;;;;;;;7.70;6.90;;;;;;;12.74;68.30;100188.38;5089510;28;20452;-57
2022/01/02 01:31:11;;;;;;;7.60;6.80;;;;;;;12.78;68.25;100187.56;5089908;28;20279;-57
2022/01/02 01:33:38;;;;;;;6.87;6.17;;;;;;;12.76;68.33;100179.81;5090151;28;20202;-58
2022/01/02 01:36:05;;;;;;;7.43;6.33;;;;;;;12.85;67.86;100180.00;5087062;28;20225;-59
2022/01/02 01:38:33;;;;;;;8.37;6.60;;;;;;;12.82;67.85;100173.91;5090021;28;20191;-59
2022/01/02 01:41:10;;;;;;;7.33;6.53;;;;;;;12.81;67.86;100179.91;5090010;28;20207;-58
2022/01/02 01:43:40;;;;;;;7.20;6.47;;;;;;;12.83;68.14;100186.81;5090906;28;20186;-59
2022/01/02 01:46:07;;;;;;;6.23;5.60;;;;;;;12.84;68.17;100174.81;5091303;28;20558;-59
2022/01/02 01:48:36;;;;;;;8.23;6.80;;;;;;;12.79;68.01;100173.84;5091066;28;20187;-59
2022/01/02 01:51:03;;;;;;;6.73;6.13;;;;;;;12.73;68.52;100181.47;5090796;28;20290;-58
2022/01/02 01:53:29;;;;;;;7.03;6.30;;;;;;;12.70;68.66;100189.16;5090853;28;20274;-58
2022/01/02 01:55:57;;;;;;;6.43;5.50;;;;;;;12.72;68.29;100177.16;5090808;28;20549;-59
2022/01/02 01:58:25;;;;;;;7.17;6.47;;;;;;;12.70;68.70;100177.13;5090144;28;20199;-59
2022/01/02 02:00:51;;;;;;;6.60;5.87;;;;;;;12.68;68.69;100177.94;5090563;28;20229;-59
2022/01/02 02:03:20;;;;;;;7.13;6.30;;;;;;;12.70;68.35;100173.69;5089343;28;20191;-58
2022/01/02 02:05:48;;;;;;;8.07;6.60;;;;;;;12.71;68.73;100176.31;5090389;28;20205;-58
2022/01/02 02:08:16;;;;;;;8.77;6.40;;;;;;;12.72;68.71;100179.72;5090683;28;20197;-58
2022/01/02 02:10:46;;;;;;;7.80;7.00;;;;;;;12.66;68.69;100170.16;5087417;28;20194;-58
2022/01/02 02:13:13;;;;;;;8.83;7.70;;;;;;;12.60;69.02;100166.63;5089847;28;20278;-58
2022/01/02 02:15:40;;;;;;;7.90;7.10;;;;;;;12.54;69.48;100166.50;5087050;28;20272;-58
2022/01/02 02:18:07;;;;;;;8.07;6.60;;;;;;;12.59;69.40;100172.59;5089647;28;20193;-58
2022/01/02 02:20:36;;;;;;;7.95;7.15;;;;;;;12.59;69.48;100176.06;5089128;28;20447;-58
2022/01/02 02:23:04;;;;;;;6.77;6.17;;;;;;;12.63;68.97;100170.13;5092937;28;20191;-58
2022/01/02 02:25:33;;;;;;;6.93;6.23;;;;;;;12.61;69.48;100164.06;5090356;28;20286;-58
2022/01/02 02:28:02;;;;;;;7.80;7.00;;;;;;;12.70;69.13;100173.69;5109591;28;20697;-58
2022/01/02 02:30:31;;;;;;;7.53;6.73;;;;;;;12.68;69.06;100168.50;5110826;28;20192;-58
2022/01/02 02:33:01;;;;;;;7.50;6.70;;;;;;;12.65;69.57;100173.59;5110818;28;20205;-58
2022/01/02 02:35:30;;;;;;;9.43;7.07;;;;;;;12.66;69.21;100166.75;5110576;28;20234;-58
2022/01/02 02:37:58;;;;;;;8.00;7.20;;;;;;;12.61;69.49;100171.78;5110433;28;20197;-58
2022/01/02 02:40:29;;;;;;;8.17;7.37;;;;;;;12.65;69.71;100175.31;5110712;28;20557;-58
2022/01/02 02:43:00;;;;;;;8.07;7.10;;;;;;;12.69;69.83;100183.13;5110558;28;20218;-58
2022/01/02 02:51:05;;;;;;;8.23;6.87;;;;;;;12.47;70.01;100167.25;5090165;28;20186;-58
2022/01/02 02:53:35;;;;;;;7.90;7.10;;;;;;;12.51;69.93;100176.75;5090008;28;20191;-58
2022/01/02 02:56:01;;;;;;;7.67;6.97;;;;;;;12.47;69.92;100177.53;5089835;28;20195;-59
2022/01/02 02:58:41;;;;;;;7.77;6.97;;;;;;;12.45;70.16;100172.34;5090053;28;20565;-59
2022/01/02 03:01:09;;;;;;;8.20;7.40;;;;;;;12.40;70.40;100182.56;5089855;28;20452;-58
2022/01/02 03:03:36;;;;;;;7.03;6.30;;;;;;;12.39;70.24;100178.25;5081395;28;20738;-59
2022/01/02 03:06:03;;;;;;;8.40;7.17;;;;;;;12.37;70.38;100186.78;5089816;28;20282;-59
2022/01/02 03:08:31;;;;;;;7.53;6.70;;;;;;;12.31;70.23;100176.34;5089904;28;20191;-58
2022/01/02 03:11:00;;;;;;;7.47;6.53;;;;;;;12.35;70.10;100180.75;5090956;28;20199;-58
2022/01/02 03:13:27;;;;;;;9.30;6.20;;;;;;;12.30;70.32;100177.22;5093874;28;20648;-58
2022/01/02 03:15:54;;;;;;;7.37;6.67;;;;;;;12.30;70.35;100183.25;5093928;28;20580;-58
2022/01/02 03:18:21;;;;;;;7.93;7.13;;;;;;;12.25;70.36;100187.41;5093525;28;20198;-59
2022/01/02 03:20:48;;;;;;;7.50;6.70;;;;;;;12.22;70.70;100178.75;5093856;28;20281;-59
2022/01/02 03:23:15;;;;;;;7.63;6.50;;;;;;;12.27;70.26;100202.91;5093745;28;20215;-58
2022/01/02 03:25:42;;;;;;;6.97;6.37;;;;;;;12.25;70.69;100199.44;5093438;28;20191;-58
2022/01/02 03:28:10;;;;;;;7.33;6.63;;;;;;;12.32;70.35;100209.91;5093798;28;20198;-58
2022/01/02 03:30:37;;;;;;;7.40;6.70;;;;;;;12.29;70.24;100212.41;5085945;28;20204;-58
2022/01/02 03:33:04;;;;;;;8.47;7.23;;;;;;;12.32;70.24;100215.06;5073403;28;20219;-59
2022/01/02 03:35:31;;;;;;;7.73;6.97;;;;;;;12.32;70.35;100219.34;5073063;28;20231;-59
2022/01/02 03:37:58;;;;;;;8.17;7.13;;;;;;;12.31;70.70;100207.28;5072907;28;20293;-59
2022/01/02 03:40:25;;;;;;;8.43;7.57;;;;;;;12.39;70.50;100219.47;5073111;28;20270;-59
2022/01/02 03:42:53;;;;;;;8.90;8.05;;;;;;;12.43;70.36;100220.41;5072836;28;20450;-59
2022/01/02 03:45:21;;;;;;;8.80;7.90;;;;;;;12.46;70.43;100217.03;5072652;28;20192;-58
2022/01/02 03:47:48;;;;;;;7.57;6.87;;;;;;;12.43;70.12;100208.41;5072702;28;20205;-58
2022/01/02 03:50:15;;;;;;;8.27;7.47;;;;;;;12.49;70.66;100206.78;5072878;28;20198;-58
2022/01/02 03:52:42;;;;;;;8.73;7.93;;;;;;;12.56;70.43;100206.94;5074949;28;20678;-59
2022/01/02 03:55:10;;;;;;;8.53;7.70;;;;;;;12.49;70.64;100204.22;5093232;28;20581;-58
2022/01/02 03:57:38;;;;;;;8.97;7.53;;;;;;;12.44;70.71;100204.13;5092858;28;20286;-58
2022/01/02 04:00:07;;;;;;;8.27;7.37;;;;;;;12.49;70.48;100207.66;5093043;28;20278;-58
2022/01/02 04:02:37;;;;;;;9.77;7.90;;;;;;;12.48;70.81;100208.50;5093094;28;20250;-58
2022/01/02 04:05:06;;;;;;;9.60;7.43;;;;;;;12.48;70.58;100215.34;5092829;28;20207;-58
2022/01/02 04:07:33;;;;;;;8.50;7.70;;;;;;;12.36;70.86;100216.00;5092724;28;20666;-58
2022/01/02 04:10:04;;;;;;;8.13;7.33;;;;;;;12.39;71.18;100216.91;5093116;28;20194;-58
2022/01/02 04:12:31;;;;;;;8.37;7.50;;;;;;;12.21;70.67;100187.31;5093020;28;20202;-58
2022/01/02 04:14:58;;;;;;;7.93;7.20;;;;;;;12.34;70.98;100218.53;5093120;28;21049;-58
2022/01/02 04:17:25;;;;;;;8.10;7.30;;;;;;;12.35;70.95;100230.59;5093094;28;20198;-58
2022/01/02 04:19:54;;;;;;;9.37;7.10;;;;;;;12.11;71.10;100188.84;5092755;28;20210;-58
2022/01/02 04:22:21;;;;;;;8.10;7.30;;;;;;;12.33;71.58;100229.66;5092240;28;20624;-58
2022/01/02 04:24:49;;;;;;;8.60;7.50;;;;;;;12.39;71.31;100240.09;5092625;28;20716;-58
2022/01/02 04:27:17;;;;;;;9.10;8.00;;;;;;;12.38;71.44;100235.81;5092743;28;20187;-58
2022/01/02 04:29:44;;;;;;;9.77;8.77;;;;;;;12.37;71.49;100236.63;5091774;28;20232;-58
2022/01/02 04:32:11;;;;;;;10.33;9.10;;;;;;;12.42;72.21;100236.72;5091876;28;20194;-59
2022/01/02 04:34:38;;;;;;;8.97;8.07;;;;;;;12.42;72.09;100239.28;5091663;28;20249;-63
2022/01/02 04:37:06;;;;;;;9.70;8.73;;;;;;;12.36;71.99;100237.44;5092160;28;20278;-58
2022/01/02 04:39:33;;;;;;;9.23;8.33;;;;;;;12.47;71.96;100247.97;5092374;28;20199;-58
2022/01/02 04:42:01;;;;;;;8.33;7.53;;;;;;;12.46;71.62;100245.38;5092369;28;20300;-58
2022/01/02 04:44:28;;;;;;;9.20;8.30;;;;;;;12.48;71.84;100239.41;5091924;28;20187;-59
2022/01/02 04:46:55;;;;;;;9.87;8.87;;;;;;;12.52;71.61;100255.81;5091747;28;20644;-58
2022/01/02 04:49:21;;;;;;;9.83;8.83;;;;;;;12.46;71.54;100240.22;5091642;28;20187;-58
2022/01/02 04:51:48;;;;;;;11.27;9.00;;;;;;;12.48;71.60;100246.28;5091253;28;20175;-59
2022/01/02 04:54:17;;;;;;;9.97;8.80;;;;;;;12.50;71.60;100253.19;5091395;28;20199;-58
2022/01/02 04:56:44;;;;;;;10.33;8.90;;;;;;;12.45;72.06;100254.81;5088961;28;20277;-58
2022/01/02 04:59:10;;;;;;;9.50;8.43;;;;;;;12.44;71.99;100253.94;5091241;28;20201;-58
2022/01/02 05:01:37;;;;;;;9.60;8.60;;;;;;;12.47;71.96;100260.03;5091722;28;20613;-58
2022/01/02 05:04:04;;;;;;;9.00;8.03;;;;;;;12.46;71.79;100258.28;5091628;28;20653;-58
2022/01/02 05:06:31;;;;;;;10.73;8.93;;;;;;;12.40;72.07;100259.88;5091847;28;20197;-58
2022/01/02 05:08:58;;;;;;;8.93;8.10;;;;;;;12.40;71.80;100253.84;5091521;28;20287;-58
2022/01/02 05:11:26;;;;;;;9.80;8.67;;;;;;;12.30;72.15;100265.69;5091609;28;20282;-58
2022/01/02 05:13:53;;;;;;;11.87;9.03;;;;;;;12.22;72.34;100250.91;5091746;28;20179;-59
2022/01/02 05:16:20;;;;;;;9.60;8.63;;;;;;;12.28;72.60;100267.34;5091410;28;20219;-59
2022/01/02 05:18:47;;;;;;;10.13;8.33;;;;;;;12.30;73.00;100259.66;5091407;28;20191;-58
2022/01/02 05:21:14;;;;;;;10.07;8.83;;;;;;;12.33;72.66;100260.56;5091303;28;20182;-58
2022/01/02 05:23:42;;;;;;;9.27;8.37;;;;;;;12.35;72.16;100261.50;5091107;28;20211;-57
2022/01/02 05:26:09;;;;;;;9.13;8.23;;;;;;;12.32;72.24;100251.13;5090978;28;20202;-58
2022/01/02 05:28:37;;;;;;;9.43;8.47;;;;;;;12.33;72.28;100252.84;5091262;28;20286;-58
2022/01/02 05:31:04;;;;;;;11.23;9.23;;;;;;;12.25;72.46;100259.53;5091112;28;20229;-58
2022/01/02 05:33:31;;;;;;;9.90;8.90;;;;;;;12.23;72.78;100261.22;5090643;28;20186;-58
2022/01/02 05:35:58;;;;;;;9.70;8.70;;;;;;;12.21;72.64;100254.31;5090847;28;20231;-58
2022/01/02 05:38:25;;;;;;;9.53;8.67;;;;;;;12.22;73.10;100256.91;5090919;28;20273;-58
2022/01/02 05:40:53;;;;;;;9.63;8.40;;;;;;;12.19;73.15;100253.41;5091088;28;20191;-58
2022/01/02 05:43:20;;;;;;;9.73;8.73;;;;;;;12.16;73.06;100256.78;5090786;28;20225;-58
2022/01/02 05:45:48;;;;;;;9.93;8.87;;;;;;;12.17;72.65;100250.78;5090857;28;20195;-58
2022/01/02 05:48:15;;;;;;;9.43;8.17;;;;;;;12.19;72.81;100262.00;5090639;28;20187;-58
2022/01/02 05:50:42;;;;;;;8.40;7.50;;;;;;;12.21;72.29;100262.03;5090881;28;20657;-58
2022/01/02 05:53:09;;;;;;;8.33;7.47;;;;;;;12.25;71.87;100266.44;5090709;28;20191;-58
2022/01/02 05:55:36;;;;;;;9.10;8.13;;;;;;;12.27;71.85;100268.19;5090711;28;20681;-58
2022/01/02 05:58:03;;;;;;;9.20;8.20;;;;;;;12.27;71.59;100272.47;5090445;28;20194;-59
2022/01/02 06:00:30;;;;;;;9.13;8.23;;;;;;;12.10;71.88;100243.78;5090904;28;20573;-58
2022/01/02 06:02:58;;;;;;;9.13;7.97;;;;;;;12.26;71.96;100269.03;5090443;28;20254;-58
2022/01/02 06:05:25;;;;;;;7.97;7.27;;;;;;;12.31;71.20;100271.69;5090633;28;20665;-58
2022/01/02 06:07:52;;;;;;;8.20;7.40;;;;;;;12.35;71.19;100281.25;5090475;28;20290;-58
2022/01/02 06:10:19;;;;;;;8.70;7.63;;;;;;;12.32;71.26;100283.75;5090444;28;20198;-59
2022/01/02 06:12:46;;;;;;;9.83;7.97;;;;;;;12.30;70.94;100280.28;5090290;28;20630;-59
2022/01/02 06:15:13;;;;;;;8.57;7.67;;;;;;;12.32;70.72;100278.59;5090433;28;20286;-59
2022/01/02 06:17:40;;;;;;;9.47;7.60;;;;;;;12.40;70.41;100297.66;5090682;28;20201;-59
2022/01/02 06:20:09;;;;;;;8.07;7.27;;;;;;;12.39;70.09;100296.78;5090260;28;20195;-59
2022/01/02 06:22:36;;;;;;;7.87;7.10;;;;;;;12.44;69.88;100282.28;5090189;28;20215;-58
2022/01/02 06:25:03;;;;;;;8.40;7.60;;;;;;;12.52;69.33;100292.78;5090563;28;20628;-59
2022/01/02 06:27:30;;;;;;;8.93;7.57;;;;;;;12.60;68.97;100291.25;5089953;28;20647;-59
2022/01/02 06:29:57;;;;;;;8.20;7.33;;;;;;;12.68;68.77;100300.00;5090521;28;20582;-59
2022/01/02 06:32:24;;;;;;;8.00;7.20;;;;;;;12.77;68.75;100299.31;5090337;28;20592;-59
2022/01/02 06:34:50;;;;;;;8.37;7.27;;;;;;;12.82;68.41;100305.44;5090096;28;20739;-59
2022/01/02 06:37:20;;;;;;;7.80;7.10;;;;;;;12.86;67.88;100302.94;5090256;28;20194;-59
2022/01/02 06:39:47;;;;;;;7.90;7.00;;;;;;;12.87;68.35;100311.56;5090188;28;20187;-59
2022/01/02 06:42:14;;;;;;;7.23;6.53;;;;;;;13.58;65.81;100325.81;5090138;28;20550;-59
2022/01/02 06:44:40;;;;;;;8.53;6.60;;;;;;;14.18;62.93;100321.66;5090566;28;20197;-59
2022/01/02 06:47:07;;;;;;;7.50;6.70;;;;;;;14.12;62.61;100321.56;5094514;28;20195;-59
2022/01/02 06:49:34;;;;;;;7.37;6.63;;;;;;;13.82;63.47;100331.41;5094522;28;20635;-59
2022/01/02 06:52:01;;;;;;;7.03;6.30;;;;;;;13.67;64.00;100322.53;5094191;28;20667;-59
2022/01/02 06:54:30;;;;;;;6.90;6.20;;;;;;;13.92;63.05;100333.31;5094085;28;20179;-59
2022/01/02 06:56:56;;;;;;;7.13;6.43;;;;;;;14.28;62.11;100334.72;5094270;28;20194;-57
2022/01/02 06:59:23;;;;;;;6.30;5.70;;;;;;;14.45;60.74;100322.94;5094096;28;20667;-57
2022/01/02 07:01:50;;;;;;;7.67;6.17;;;;;;;14.33;61.14;100333.09;5093920;28;20198;-58
2022/01/02 07:04:17;;;;;;;6.83;6.13;;;;;;;14.08;61.58;100337.88;5093768;28;20233;-59
2022/01/02 07:06:44;;;;;;;8.73;6.77;;;;;;;13.87;62.51;100328.91;5093720;28;20191;-59
2022/01/02 07:09:11;;;;;;;7.13;6.43;;;;;;;13.75;62.53;100323.53;5094015;28;20198;-58
2022/01/02 07:11:39;;;;;;;7.67;6.17;;;;;;;13.78;63.14;100337.38;5093617;28;20277;-58
2022/01/02 07:14:06;;;;;;;7.20;6.20;;;;;;;14.01;62.63;100333.44;5093850;28;20190;-58
2022/01/02 07:16:33;;;;;;;6.37;5.83;;;;;;;14.36;60.88;100335.72;5093391;28;20189;-58
2022/01/02 07:19:00;;;;;;;6.97;5.90;;;;;;;14.23;61.25;100328.63;5093634;28;20195;-57
2022/01/02 07:21:27;;;;;;;7.20;6.50;;;;;;;14.14;61.40;100337.97;5093446;28;20304;-58
2022/01/02 07:23:56;;;;;;;6.43;5.93;;;;;;;14.01;61.88;100337.72;5093316;28;20210;-60
2022/01/02 07:26:22;;;;;;;7.87;6.03;;;;;;;13.97;62.28;100338.53;5092940;28;20197;-57
2022/01/02 07:28:51;;;;;;;6.90;6.20;;;;;;;13.55;62.53;100274.13;5093122;28;20312;-57
2022/01/02 07:31:18;;;;;;;6.70;6.10;;;;;;;13.90;62.72;100339.31;5095298;28;20277;-58
2022/01/02 07:33:45;;;;;;;7.57;6.87;;;;;;;13.95;62.64;100341.09;5089846;28;20187;-56
2022/01/02 07:36:11;;;;;;;7.17;6.47;;;;;;;14.00;62.52;100354.97;5092424;28;20309;-57
2022/01/02 07:38:38;;;;;;;7.07;6.37;;;;;;;14.00;62.74;100351.50;5093004;28;20278;-57
2022/01/02 07:41:05;;;;;;;6.87;6.27;;;;;;;14.06;62.37;100352.47;5092598;28;20666;-57
2022/01/02 07:43:32;;;;;;;7.07;6.37;;;;;;;14.13;62.14;100350.84;5092282;28;20219;-58
2022/01/02 07:46:00;;;;;;;7.17;6.47;;;;;;;14.15;61.86;100352.63;5093145;28;20198;-57
2022/01/02 07:48:27;;;;;;;6.73;6.03;;;;;;;14.20;61.93;100352.72;5093227;28;20204;-58
2022/01/02 07:50:54;;;;;;;6.93;6.30;;;;;;;14.26;61.58;100352.78;5093292;28;20202;-58
2022/01/02 07:53:21;;;;;;;8.07;6.80;;;;;;;14.26;61.94;100355.38;5092934;28;20652;-58
2022/01/02 07:55:48;;;;;;;7.67;6.37;;;;;;;14.34;61.46;100360.69;5092759;28;20277;-58
2022/01/02 07:58:15;;;;;;;8.10;6.97;;;;;;;14.31;61.41;100358.88;5092387;28;20248;-57
2022/01/02 08:00:42;;;;;;;7.33;6.57;;;;;;;14.19;61.55;100335.44;5092699;28;20190;-57
2022/01/02 08:03:10;;;;;;;6.53;5.93;;;;;;;14.09;61.73;100320.66;5092904;28;20321;-57
2022/01/02 08:05:37;;;;;;;8.60;7.73;;;;;;;14.38;61.62;100355.59;5092939;28;21020;-57
2022/01/02 08:08:04;;;;;;;7.37;6.70;;;;;;;14.40;61.36;100366.81;5093075;28;20273;-57
2022/01/02 08:10:31;;;;;;;7.13;6.40;;;;;;;14.39;61.67;100370.25;5093011;28;20190;-57
2022/01/02 08:12:58;;;;;;;7.10;6.50;;;;;;;14.40;61.62;100360.78;5092764;28;20509;-57
2022/01/02 08:15:25;;;;;;;7.33;6.63;;;;;;;14.46;61.36;100364.31;5092654;28;20242;-56
2022/01/02 08:17:52;;;;;;;7.83;7.03;;;;;;;14.47;61.60;100365.19;5092752;28;21121;-57
2022/01/02 08:20:20;;;;;;;8.50;6.97;;;;;;;14.53;61.40;100379.06;5092889;28;20295;-57
2022/01/02 08:22:47;;;;;;;7.93;6.87;;;;;;;14.59;61.42;100371.41;5092501;28;20223;-57
2022/01/02 08:25:14;;;;;;;7.53;6.87;;;;;;;14.56;61.46;100365.31;5092334;28;20280;-57
2022/01/02 08:27:41;;;;;;;8.40;6.83;;;;;;;14.63;61.30;100369.75;5092312;28;20209;-57
2022/01/02 08:30:09;;;;;;;8.47;6.90;;;;;;;14.66;61.21;100368.06;5092366;28;20656;-57
2022/01/02 08:32:36;;;;;;;8.10;7.20;;;;;;;14.66;60.94;100382.72;5092378;28;20222;-58
2022/01/02 08:35:03;;;;;;;8.77;7.87;;;;;;;14.67;61.37;100374.97;5092315;28;20229;-57
2022/01/02 08:37:32;;;;;;;8.50;7.50;;;;;;;14.66;61.15;100369.78;5092417;28;20658;-57
2022/01/02 08:39:59;;;;;;;11.40;8.40;;;;;;;14.71;61.17;100373.28;5092251;28;20279;-57
2022/01/02 08:42:26;;;;;;;10.53;8.00;;;;;;;14.76;61.03;100369.03;5091852;28;20277;-59
2022/01/02 08:44:52;;;;;;;9.50;7.43;;;;;;;14.76;61.12;100375.09;5091600;28;20218;-57
2022/01/02 08:47:19;;;;;;;9.67;7.40;;;;;;;14.78;61.03;100373.38;5091776;28;20199;-57
2022/01/02 08:49:46;;;;;;;7.43;6.57;;;;;;;14.91;60.71;100363.22;5091982;28;20278;-57
2022/01/02 08:52:13;;;;;;;8.60;7.73;;;;;;;14.89;60.90;100365.75;5091671;28;20270;-56
2022/01/02 08:54:41;;;;;;;11.03;7.70;;;;;;;14.96;60.87;100375.38;5091675;28;20219;-57
2022/01/02 08:57:09;;;;;;;8.73;7.17;;;;;;;15.00;60.61;100376.25;5091545;28;20635;-56
2022/01/02 08:59:36;;;;;;;7.90;7.10;;;;;;;15.08;60.73;100382.41;5091476;28;20222;-57
2022/01/02 09:02:04;;;;;;;12.47;7.60;;;;;;;15.12;60.75;100384.19;5091277;28;20195;-58
2022/01/02 09:04:31;;;;;;;8.60;6.67;;;;;;;15.18;60.23;100358.38;5091559;28;20624;-57
2022/01/02 09:06:57;;;;;;;10.47;7.57;;;;;;;15.23;59.96;100361.88;5091001;28;20905;-57
2022/01/02 09:09:25;;;;;;;10.23;7.50;;;;;;;15.29;59.73;100365.41;5090504;28;20202;-57
2022/01/02 09:11:53;;;;;;;9.33;7.43;;;;;;;15.30;59.69;100358.47;5091434;28;20206;-57
2022/01/02 09:14:21;;;;;;;8.67;7.77;;;;;;;15.28;59.82;100349.84;5090730;28;20269;-57
2022/01/02 09:16:48;;;;;;;8.10;7.30;;;;;;;15.30;60.14;100337.78;5091056;28;20277;-57
2022/01/02 09:19:15;;;;;;;8.63;7.30;;;;;;;15.38;59.84;100343.06;5090520;28;20176;-57
2022/01/02 09:21:42;;;;;;;8.50;6.57;;;;;;;15.37;59.54;100349.94;5090620;28;20195;-58
2022/01/02 09:24:09;;;;;;;8.03;7.30;;;;;;;15.44;59.64;100345.72;5092257;28;20201;-58
2022/01/02 09:26:36;;;;;;;7.87;7.07;;;;;;;15.39;59.21;100332.69;5090819;28;20185;-58
2022/01/02 09:29:11;;;;;;;9.90;7.35;;;;;;;15.39;59.14;100330.09;5107307;27;20426;-58
2022/01/02 09:31:38;;;;;;;7.57;6.80;;;;;;;15.53;58.81;100328.56;5087967;28;20214;-58
2022/01/02 09:34:05;;;;;;;7.10;6.40;;;;;;;15.57;58.56;100317.38;5072583;28;20606;-58
2022/01/02 09:36:32;;;;;;;7.60;6.90;;;;;;;15.59;58.70;100305.31;5067605;28;20685;-58
2022/01/02 09:38:59;;;;;;;7.27;6.60;;;;;;;15.66;58.20;100312.25;5067220;28;20203;-58
2022/01/02 09:41:26;;;;;;;7.47;6.73;;;;;;;15.71;58.09;100313.16;5067181;28;20191;-59
2022/01/02 09:43:53;;;;;;;7.43;6.30;;;;;;;15.78;57.71;100308.91;5067148;28;20197;-59
2022/01/02 09:46:24;;;;;;;7.53;6.40;;;;;;;15.84;57.42;100307.25;5067181;28;20203;-59
2022/01/02 09:48:53;;;;;;;8.47;6.70;;;;;;;15.91;57.26;100314.22;5067170;28;20307;-60
2022/01/02 09:51:22;;;;;;;7.27;6.57;;;;;;;15.81;56.69;100303.75;5067185;28;20327;-57
2022/01/02 09:53:49;;;;;;;7.60;6.73;;;;;;;15.80;57.08;100315.84;5086093;28;20175;-59
2022/01/02 09:56:16;;;;;;;8.23;6.57;;;;;;;15.86;57.66;100302.06;5086665;28;20198;-58
2022/01/02 09:58:44;;;;;;;8.73;6.20;;;;;;;15.95;56.85;100304.75;5086872;28;20592;-58
2022/01/02 10:01:15;;;;;;;8.37;6.30;;;;;;;15.87;57.15;100294.31;5086954;28;20188;-58
2022/01/02 10:03:46;;;;;;;7.27;6.57;;;;;;;15.98;57.05;100298.72;5086447;28;20283;-58
2022/01/02 10:06:13;;;;;;;7.70;6.70;;;;;;;15.97;57.12;100282.28;5085759;28;20193;-58
2022/01/02 10:08:40;;;;;;;7.45;6.75;;;;;;;15.94;57.25;100283.13;5084712;28;20510;-58
2022/01/02 10:11:12;;;;;;;8.47;7.03;;;;;;;16.00;57.07;100284.03;5086589;28;20226;-58
2022/01/02 10:13:44;;;;;;;8.10;7.23;;;;;;;15.99;57.57;100274.53;5086684;28;20256;-57
2022/01/02 10:16:31;;;;;;;7.20;6.50;;;;;;;15.97;57.43;100273.63;5087218;28;20650;-56
2022/01/02 10:19:01;;;;;;;9.07;7.00;;;;;;;16.02;57.75;100269.34;5085689;28;20298;-58
2022/01/02 10:21:35;;;;;;;8.13;7.30;;;;;;;16.14;57.24;100269.44;5083292;28;20445;-58
2022/01/02 10:24:14;;;;;;;7.73;6.93;;;;;;;16.22;56.84;100262.56;5085145;28;20193;-57
2022/01/02 10:26:41;;;;;;;6.40;5.90;;;;;;;16.13;56.74;100254.72;5085193;28;20278;-57
2022/01/02 10:29:13;;;;;;;6.43;5.83;;;;;;;16.11;56.86;100253.84;5065088;28;20564;-57
2022/01/02 10:31:40;;;;;;;9.63;6.00;;;;;;;16.10;57.02;100250.38;5065102;28;20658;-57
2022/01/02 10:34:09;;;;;;;7.00;5.77;;;;;;;16.15;56.64;100245.25;5065124;28;20188;-57
2022/01/02 10:36:40;;;;;;;6.90;6.30;;;;;;;16.22;56.67;100252.19;5065659;28;20202;-58
2022/01/02 10:39:11;;;;;;;15.70;8.43;;;;;;;16.17;56.85;100241.81;5060283;28;20184;-56
2022/01/02 10:41:40;;;;;;;7.83;6.40;;;;;;;16.23;56.77;100244.44;5052361;28;20199;-57
2022/01/02 10:44:29;;;;;;;6.93;6.23;;;;;;;16.21;56.24;100240.94;5052212;28;20234;-57
2022/01/02 10:47:15;;;;;;;7.77;6.90;;;;;;;16.18;56.72;100230.56;5052406;28;20197;-57
2022/01/02 10:50:05;;;;;;;8.00;7.20;;;;;;;16.26;56.69;100235.81;5051429;28;20514;-57
2022/01/02 10:52:35;;;;;;;7.63;6.83;;;;;;;16.38;56.43;100233.25;5049099;28;20330;-57
2022/01/02 10:55:06;;;;;;;8.13;6.37;;;;;;;16.36;55.89;100229.78;5052352;28;20198;-57
2022/01/02 10:57:34;;;;;;;6.47;5.87;;;;;;;16.37;56.10;100223.75;5052046;28;20228;-57
2022/01/02 11:00:02;;;;;;;6.50;5.90;;;;;;;16.38;55.97;100217.69;5052065;28;20587;-57
2022/01/02 11:02:29;;;;;;;7.13;6.20;;;;;;;16.49;55.86;100226.38;5052374;28;20383;-57
2022/01/02 11:04:59;;;;;;;6.37;5.70;;;;;;;16.45;55.33;100225.50;5052136;28;20742;-58
2022/01/02 11:07:40;;;;;;;8.03;5.97;;;;;;;16.45;55.67;100217.72;5051622;28;20196;-57
2022/01/02 11:10:08;;;;;;;8.30;6.43;;;;;;;16.52;55.04;100213.44;5051755;28;20187;-57
2022/01/02 11:12:35;;;;;;;6.60;5.17;;;;;;;16.55;54.75;100207.41;5051567;28;20206;-56
2022/01/02 11:15:02;;;;;;;6.63;5.50;;;;;;;16.62;54.24;100212.63;5051345;28;20199;-57
2022/01/02 11:17:29;;;;;;;5.93;5.33;;;;;;;16.61;54.20;100205.72;5051930;28;20206;-57
2022/01/02 11:19:56;;;;;;;5.77;5.27;;;;;;;16.66;54.48;100210.91;5051786;28;20193;-58
2022/01/02 11:22:32;;;;;;;6.37;4.93;;;;;;;16.71;54.21;100202.28;5051808;28;20203;-57
2022/01/02 11:25:05;;;;;;;6.67;5.53;;;;;;;16.72;53.93;100204.03;5051492;28;20217;-57
2022/01/02 11:27:42;;;;;;;9.40;6.67;;;;;;;16.69;54.29;100193.63;5058512;28;20234;-57
2022/01/02 11:30:40;;;;;;;7.28;6.43;;;;;;;16.45;53.67;100147.69;5070961;28;20520;-57
2022/01/02 11:33:10;;;;;;;5.83;5.33;;;;;;;16.82;53.54;100197.13;5071655;28;20195;-57
2022/01/02 11:35:39;;;;;;;8.40;5.60;;;;;;;16.87;53.06;100185.88;5071652;28;20616;-58